createdAt,value
2019-02-02T00:02:09.970Z,15.70
2019-02-02T00:07:13.376Z,15.10
2019-02-02T00:12:16.760Z,15.40
2019-02-02T00:17:20.001Z,15.20
2019-02-02T00:22:21.360Z,13.70
2019-02-02T00:27:24.573Z,13.60
2019-02-02T00:32:27.778Z,15.80
2019-02-02T00:38:43.396Z,20.00
2019-02-02T00:43:42.298Z,16.60
2019-02-02T00:48:46.275Z,16.90
2019-02-02T00:53:52.338Z,17.20
2019-02-02T00:58:55.917Z,15.50
2019-02-02T01:03:58.241Z,15.80
2019-02-02T01:09:01.581Z,16.50
2019-02-02T01:14:06.429Z,16.90
2019-02-02T01:19:10.913Z,18.70
2019-02-02T01:24:15.272Z,23.00
2019-02-02T01:29:17.904Z,22.30
2019-02-02T01:34:06.407Z,19.60
2019-02-02T01:39:12.444Z,23.80
2019-02-02T01:44:09.251Z,21.60
2019-02-02T01:56:10.823Z,21.90
2019-02-02T02:01:11.916Z,17.30
2019-02-02T02:06:14.442Z,16.10
2019-02-02T02:11:17.752Z,16.90
2019-02-02T02:16:21.207Z,15.90
2019-02-02T02:21:38.911Z,15.20
2019-02-02T02:36:52.185Z,18.60
2019-02-02T02:42:21.365Z,15.30
2019-02-02T02:47:22.923Z,15.10
2019-02-02T02:52:09.263Z,10.70
2019-02-02T02:57:02.183Z,12.80
2019-02-02T03:01:52.761Z,11.20
2019-02-02T03:06:43.647Z,12.30
2019-02-02T03:11:35.283Z,13.00
2019-02-02T03:21:57.569Z,11.80
2019-02-02T03:26:48.321Z,13.00
2019-02-02T03:31:41.214Z,12.50
2019-02-02T03:36:30.479Z,14.10
2019-02-02T03:41:18.784Z,12.50
2019-02-02T03:46:10.488Z,12.90
2019-02-02T03:50:59.474Z,13.60
2019-02-02T03:55:51.275Z,13.20
2019-02-02T04:00:42.711Z,13.80
2019-02-02T04:05:31.622Z,11.80
2019-02-02T04:10:22.910Z,13.00
2019-02-02T04:15:20.433Z,14.50
2019-02-02T04:20:11.451Z,12.00
2019-02-02T04:25:03.710Z,13.90
2019-02-02T04:29:53.945Z,10.40
2019-02-02T04:34:44.015Z,12.50
2019-02-02T04:39:33.297Z,14.20
2019-02-02T04:44:24.550Z,15.10
2019-02-02T04:49:15.806Z,13.70
2019-02-02T04:54:08.824Z,15.40
2019-02-02T04:58:59.511Z,14.80
2019-02-02T05:04:08.267Z,17.20
2019-02-02T05:09:12.494Z,18.30
2019-02-02T05:14:01.005Z,15.70
2019-02-02T05:18:51.981Z,17.60
2019-02-02T05:23:41.017Z,15.10
2019-02-02T05:28:46.603Z,18.90
2019-02-02T05:33:43.955Z,18.90
2019-02-02T05:38:50.120Z,19.10
2019-02-02T05:43:52.894Z,19.10
2019-02-02T05:48:40.427Z,16.50
2019-02-02T05:53:45.748Z,20.20
2019-02-02T05:58:49.112Z,19.20
2019-02-02T06:03:35.083Z,16.70
2019-02-02T06:08:26.337Z,17.80
2019-02-02T06:13:17.683Z,16.00
2019-02-02T06:18:23.873Z,19.60
2019-02-02T06:23:27.196Z,19.30
2019-02-02T06:28:30.085Z,20.20
2019-02-02T06:33:32.815Z,21.60
2019-02-02T06:38:36.084Z,23.00
2019-02-02T06:43:39.260Z,23.40
2019-02-02T06:48:41.764Z,23.80
2019-02-02T06:53:44.923Z,25.10
2019-02-02T06:58:47.979Z,23.40
2019-02-02T07:03:44.859Z,24.90
2019-02-02T07:08:34.104Z,21.00
2019-02-02T07:13:39.817Z,25.30
2019-02-02T07:18:42.966Z,25.30
2019-02-02T07:23:30.609Z,21.10
2019-02-02T07:28:38.374Z,24.90
2019-02-02T07:33:26.817Z,25.80
2019-02-02T07:38:18.226Z,22.40
2019-02-02T07:43:06.549Z,20.70
2019-02-02T07:47:56.707Z,25.40
2019-02-02T07:52:45.515Z,22.80
2019-02-02T07:57:35.611Z,20.20
2019-02-02T08:02:26.961Z,26.30
2019-02-02T08:07:16.371Z,23.10
2019-02-02T08:12:05.452Z,22.00
2019-02-02T08:16:54.933Z,21.00
2019-02-02T08:21:44.717Z,21.70
2019-02-02T08:26:36.071Z,22.80
2019-02-02T08:31:27.673Z,24.10
2019-02-02T08:36:18.511Z,23.80
2019-02-02T08:41:06.629Z,24.30
2019-02-02T08:45:57.909Z,27.40
2019-02-02T08:50:47.113Z,22.70
2019-02-02T08:55:35.475Z,23.20
2019-02-02T09:00:25.588Z,26.00
2019-02-02T09:05:16.299Z,27.60
2019-02-02T09:10:06.460Z,25.30
2019-02-02T09:14:57.180Z,25.90
2019-02-02T09:19:48.782Z,31.70
2019-02-02T09:24:37.722Z,30.30
2019-02-02T09:29:28.403Z,25.30
2019-02-02T09:34:17.316Z,25.10
2019-02-02T09:39:07.531Z,22.40
2019-02-02T09:43:57.920Z,23.80
2019-02-02T09:48:48.109Z,28.20
2019-02-02T09:53:40.131Z,29.50
2019-02-02T09:58:31.810Z,31.10
2019-02-02T10:03:22.249Z,25.70
2019-02-02T10:08:12.174Z,29.90
2019-02-02T10:13:02.763Z,30.40
2019-02-02T10:17:55.584Z,32.60
2019-02-02T10:22:46.051Z,28.40
2019-02-02T10:27:36.325Z,28.80
2019-02-02T10:32:27.273Z,28.70
2019-02-02T10:37:17.279Z,29.80
2019-02-02T10:42:06.809Z,21.80
2019-02-02T10:46:58.528Z,26.20
2019-02-02T10:51:46.563Z,26.40
2019-02-02T10:56:40.955Z,23.10
2019-02-02T11:01:30.250Z,22.70
2019-02-02T11:06:19.804Z,26.30
2019-02-02T11:11:09.758Z,23.10
2019-02-02T11:15:59.214Z,27.40
2019-02-02T11:20:50.378Z,26.80
2019-02-02T11:25:39.916Z,25.30
2019-02-02T11:30:30.210Z,22.90
2019-02-02T11:35:20.017Z,22.30
2019-02-02T11:40:10.245Z,23.60
2019-02-02T11:44:59.384Z,22.80
2019-02-02T11:49:51.161Z,24.90
2019-02-02T11:54:42.215Z,24.90
2019-02-02T11:59:31.456Z,24.40
2019-02-02T12:04:20.811Z,24.70
2019-02-02T12:09:10.192Z,26.80
2019-02-02T12:13:58.382Z,26.60
2019-02-02T12:18:47.546Z,26.80
2019-02-02T12:23:36.826Z,29.40
2019-02-02T12:28:26.602Z,27.00
2019-02-02T12:33:16.085Z,27.40
2019-02-02T12:38:05.152Z,28.60
2019-02-02T12:42:55.298Z,26.90
2019-02-02T12:47:46.974Z,32.90
2019-02-02T12:52:36.034Z,31.30
2019-02-02T12:57:25.078Z,31.00
2019-02-02T13:02:16.976Z,31.60
2019-02-02T13:07:06.201Z,32.80
2019-02-02T13:11:58.974Z,32.10
2019-02-02T13:16:50.722Z,28.20
2019-02-02T13:21:39.775Z,30.00
2019-02-02T13:26:28.999Z,29.60
2019-02-02T13:31:21.617Z,28.40
2019-02-02T13:36:10.108Z,26.40
2019-02-02T13:40:59.504Z,29.20
2019-02-02T13:45:50.816Z,31.00
2019-02-02T13:50:40.295Z,29.40
2019-02-02T13:55:29.076Z,26.80
2019-02-02T14:00:17.263Z,28.70
2019-02-02T14:05:06.448Z,24.90
2019-02-02T14:09:58.141Z,28.60
2019-02-02T14:14:47.030Z,28.80
2019-02-02T14:19:36.502Z,28.00
2019-02-02T14:24:25.868Z,29.50
2019-02-02T14:29:15.328Z,29.10
2019-02-02T14:34:05.135Z,28.70
2019-02-02T14:38:55.096Z,30.20
2019-02-02T14:43:44.264Z,28.50
2019-02-02T14:48:33.856Z,26.80
2019-02-02T14:53:23.390Z,30.00
2019-02-02T14:58:12.603Z,33.90
2019-02-02T15:03:03.908Z,30.00
2019-02-02T15:07:53.389Z,31.20
2019-02-02T15:12:42.702Z,31.90
2019-02-02T15:17:34.377Z,36.70
2019-02-02T15:22:23.425Z,32.50
2019-02-02T15:27:15.249Z,29.50
2019-02-02T15:32:04.064Z,32.30
2019-02-02T15:36:53.671Z,33.00
2019-02-02T15:41:52.759Z,34.80
2019-02-02T15:46:48.855Z,31.30
2019-02-02T15:51:40.750Z,30.00
2019-02-02T15:56:29.201Z,30.50
2019-02-02T16:01:18.735Z,32.70
2019-02-02T16:06:10.483Z,34.50
2019-02-02T16:10:59.918Z,36.70
2019-02-02T16:15:49.363Z,32.60
2019-02-02T16:20:41.573Z,32.90
2019-02-02T16:25:31.530Z,37.80
2019-02-02T16:30:21.123Z,34.80
2019-02-02T16:35:12.697Z,37.60
2019-02-02T16:40:02.044Z,35.10
2019-02-02T16:44:53.296Z,37.60
2019-02-02T16:49:42.548Z,34.00
2019-02-02T16:54:32.354Z,34.60
2019-02-02T16:59:22.089Z,33.20
2019-02-02T17:04:16.369Z,33.30
2019-02-02T17:09:04.859Z,35.40
2019-02-02T17:13:54.344Z,36.20
2019-02-02T17:18:46.385Z,37.70
2019-02-02T17:23:35.604Z,35.80
2019-02-02T17:28:25.506Z,34.20
2019-02-02T17:33:15.486Z,34.90
2019-02-02T17:38:06.898Z,38.00
2019-02-02T17:42:54.729Z,36.90
2019-02-02T17:47:44.013Z,35.90
2019-02-02T17:52:33.171Z,36.10
2019-02-02T17:57:24.923Z,37.30
2019-02-02T18:02:14.169Z,36.40
2019-02-02T18:07:03.735Z,34.20
2019-02-02T18:11:53.226Z,33.20
2019-02-02T18:16:42.802Z,33.70
2019-02-02T18:21:32.405Z,30.40
2019-02-02T18:26:23.869Z,34.20
2019-02-02T18:31:13.161Z,34.10
2019-02-02T18:36:05.092Z,37.30
2019-02-02T18:40:54.512Z,31.30
2019-02-02T18:45:46.404Z,34.70
2019-02-02T18:50:35.607Z,38.20
2019-02-02T18:55:25.173Z,31.20
2019-02-02T19:00:14.494Z,32.50
2019-02-02T19:05:04.841Z,33.00
2019-02-02T19:09:56.553Z,37.00
2019-02-02T19:14:44.740Z,35.60
2019-02-02T19:19:44.593Z,39.90
2019-02-02T19:24:32.726Z,32.70
2019-02-02T19:29:22.068Z,30.10
2019-02-02T19:34:11.812Z,30.20
2019-02-02T19:39:01.782Z,29.00
2019-02-02T19:43:51.561Z,29.30
2019-02-02T19:48:41.357Z,31.40
2019-02-02T19:53:32.546Z,26.30
2019-02-02T19:58:22.272Z,28.60
2019-02-02T20:03:13.098Z,31.60
2019-02-02T20:08:02.504Z,27.70
2019-02-02T20:12:52.618Z,28.50
2019-02-02T20:17:40.921Z,27.50
2019-02-02T20:22:30.207Z,26.10
2019-02-02T20:27:21.446Z,32.30
2019-02-02T20:32:10.229Z,27.40
2019-02-02T20:36:59.335Z,28.30
2019-02-02T20:41:49.005Z,28.50
2019-02-02T20:46:40.914Z,28.70
2019-02-02T20:51:30.633Z,27.80
2019-02-02T20:56:20.395Z,23.50
2019-02-02T21:01:12.449Z,26.00
2019-02-02T21:06:01.532Z,30.60
2019-02-02T21:10:51.026Z,31.50
2019-02-02T21:15:41.266Z,27.60
2019-02-02T21:20:29.879Z,31.30
2019-02-02T21:25:35.917Z,35.30
2019-02-02T21:30:31.449Z,34.80
2019-02-02T21:35:19.439Z,29.90
2019-02-02T21:40:08.838Z,30.60
2019-02-02T21:44:58.691Z,31.20
2019-02-02T21:49:47.991Z,33.30
2019-02-02T21:54:36.443Z,30.30
2019-02-02T21:59:30.074Z,34.80
2019-02-02T22:04:17.977Z,31.50
2019-02-02T22:09:18.039Z,36.10
2019-02-02T22:14:18.068Z,36.20
2019-02-02T22:19:22.453Z,35.80
2019-02-02T22:24:19.490Z,38.00
2019-02-02T22:29:24.154Z,40.90
2019-02-02T22:34:11.296Z,32.70
2019-02-02T22:39:03.306Z,31.10
2019-02-02T22:43:54.093Z,37.30
2019-02-02T22:48:44.312Z,32.20
2019-02-02T22:53:33.916Z,28.60
2019-02-02T22:58:24.036Z,32.60
2019-02-02T23:03:13.574Z,32.30
2019-02-02T23:08:04.698Z,31.20
2019-02-02T23:12:56.107Z,30.80
2019-02-02T23:17:48.243Z,32.10
2019-02-02T23:22:40.011Z,30.10
2019-02-02T23:27:32.173Z,32.70
2019-02-02T23:32:24.109Z,28.70
2019-02-02T23:37:15.779Z,31.30
2019-02-02T23:42:07.688Z,31.30
2019-02-02T23:46:59.605Z,33.40
2019-02-02T23:51:51.390Z,32.20
2019-02-02T23:56:42.423Z,31.40
